Time;durP1;ratioP1;P1;durP2;ratioP2;P2;SDS_P1;SDS_P2;PMS_P1;PMS_P2;Temp;Humidity;BMP_temperature;BMP_pressure;BME280_temperature;BME280_humidity;BME280_pressure;Samples;Min_cycle;Max_cycle;Signal;HPM_P1;HPM_P2
2022/10/09 00:00:42;;;;;;;8.68;5.70;;;13.90;99.90;;;;;;5021721;28;20226;-78
2022/10/09 00:03:30;;;;;;;9.50;5.72;;;14.00;99.90;;;;;;5009760;28;20243;-79
2022/10/09 00:06:21;;;;;;;9.65;5.78;;;13.90;99.90;;;;;;5017382;28;20226;-79
2022/10/09 00:09:11;;;;;;;9.80;5.80;;;14.00;99.90;;;;;;5006886;28;20229;-79
2022/10/09 00:12:00;;;;;;;8.80;5.40;;;13.90;99.90;;;;;;5016372;28;20244;-79
2022/10/09 00:14:49;;;;;;;14.25;5.55;;;14.00;99.90;;;;;;5015639;28;20232;-79
2022/10/09 00:17:37;;;;;;;7.93;5.43;;;14.00;99.90;;;;;;5012920;28;20301;-79
2022/10/09 00:20:26;;;;;;;10.68;5.38;;;14.00;99.90;;;;;;5020287;28;20815;-79
2022/10/09 00:23:16;;;;;;;8.57;5.00;;;14.10;99.90;;;;;;5020193;28;20268;-79
2022/10/09 00:26:06;;;;;;;12.75;5.18;;;14.10;99.90;;;;;;5019215;28;20578;-80
2022/10/09 00:28:55;;;;;;;9.82;5.65;;;14.00;99.90;;;;;;5016476;28;20224;-78
2022/10/09 00:31:44;;;;;;;8.50;4.93;;;14.00;99.90;;;;;;5017424;28;20220;-79
2022/10/09 00:34:33;;;;;;;8.32;4.85;;;13.90;99.90;;;;;;5015160;28;20222;-78
2022/10/09 00:37:21;;;;;;;10.35;4.90;;;13.80;99.90;;;;;;5016408;28;20241;-78
2022/10/09 00:40:10;;;;;;;7.85;4.45;;;13.80;99.90;;;;;;5017931;28;20218;-78
2022/10/09 00:43:00;;;;;;;8.10;4.93;;;13.90;99.90;;;;;;5008659;28;20701;-78
2022/10/09 00:45:53;;;;;;;6.70;4.50;;;13.80;99.90;;;;;;5004895;28;20355;-78
2022/10/09 00:48:42;;;;;;;9.32;4.50;;;13.60;99.90;;;;;;5018508;28;20726;-78
2022/10/09 00:51:32;;;;;;;9.43;4.80;;;13.70;99.90;;;;;;5016159;28;20233;-78
2022/10/09 00:54:24;;;;;;;10.60;5.28;;;13.60;99.90;;;;;;5016819;28;20218;-80
2022/10/09 00:57:12;;;;;;;13.35;4.90;;;13.60;99.90;;;;;;5017646;28;20225;-79
2022/10/09 01:00:07;;;;;;;7.68;4.60;;;13.60;99.90;;;;;;5020323;28;20236;-79
2022/10/09 01:02:56;;;;;;;9.35;5.45;;;13.60;99.90;;;;;;5021109;28;20228;-79
2022/10/09 01:05:52;;;;;;;7.45;4.97;;;13.50;99.90;;;;;;5003056;28;20277;-78
2022/10/09 01:08:48;;;;;;;8.80;4.93;;;13.50;99.90;;;;;;4997345;28;20230;-77
2022/10/09 01:11:45;;;;;;;13.75;5.15;;;13.40;99.90;;;;;;4997782;28;20692;-78
2022/10/09 01:14:39;;;;;;;7.30;5.32;;;13.40;99.90;;;;;;4984219;28;20248;-78
2022/10/09 01:17:36;;;;;;;8.27;4.63;;;13.40;99.90;;;;;;4986423;28;20234;-78
2022/10/09 01:20:41;;;;;;;10.15;5.43;;;13.30;99.90;;;;;;4994340;28;20225;-78
2022/10/09 01:23:46;;;;;;;8.30;5.85;;;13.30;99.90;;;;;;4999925;28;20259;-79
2022/10/09 01:27:12;;;;;;;7.90;5.78;;;13.20;99.90;;;;;;5002692;28;20226;-79
2022/10/09 01:30:04;;;;;;;8.65;5.68;;;13.30;99.90;;;;;;4936461;28;20900;-78
2022/10/09 01:32:54;;;;;;;7.93;5.40;;;13.20;99.90;;;;;;4937725;28;20240;-79
2022/10/09 01:35:46;;;;;;;11.10;5.63;;;13.20;99.90;;;;;;4991174;28;20567;-77
2022/10/09 01:38:35;;;;;;;13.52;6.10;;;13.20;99.90;;;;;;4996153;28;21021;-77
2022/10/09 01:41:25;;;;;;;8.88;5.78;;;13.20;99.90;;;;;;4999517;28;20301;-78
2022/10/09 01:44:20;;;;;;;12.38;6.15;;;13.20;99.90;;;;;;5000137;28;20237;-78
2022/10/09 01:47:14;;;;;;;6.80;5.32;;;13.10;99.90;;;;;;4990267;28;20219;-78
2022/10/09 01:50:12;;;;;;;11.63;6.40;;;13.00;99.90;;;;;;4998997;28;20233;-78
2022/10/09 01:53:03;;;;;;;9.25;6.30;;;12.90;99.90;;;;;;4996750;28;20230;-78
2022/10/09 01:55:58;;;;;;;9.68;5.85;;;13.00;99.90;;;;;;5000464;28;21010;-78
2022/10/09 01:58:52;;;;;;;9.65;5.70;;;13.30;99.90;;;;;;4997584;28;20218;-79
2022/10/09 02:01:44;;;;;;;9.70;5.72;;;13.20;99.90;;;;;;4996642;28;20500;-80
2022/10/09 02:04:35;;;;;;;10.85;6.47;;;13.10;99.90;;;;;;5009146;28;20448;-79
2022/10/09 02:07:25;;;;;;;9.75;5.32;;;13.00;99.90;;;;;;5011947;28;20225;-78
2022/10/09 02:10:17;;;;;;;9.63;5.32;;;13.00;99.90;;;;;;5015808;28;20693;-80
2022/10/09 02:13:06;;;;;;;12.50;5.53;;;12.80;99.90;;;;;;5002848;28;20702;-80
2022/10/09 02:16:00;;;;;;;9.02;5.40;;;12.90;99.90;;;;;;4998382;28;20237;-78
2022/10/09 02:19:06;;;;;;;8.93;5.43;;;12.70;99.90;;;;;;5007286;28;20228;-78
2022/10/09 02:21:59;;;;;;;7.70;5.18;;;12.70;99.90;;;;;;5010950;28;20225;-78
2022/10/09 02:24:48;;;;;;;10.73;5.55;;;12.50;99.90;;;;;;5014946;28;20680;-78
2022/10/09 02:27:36;;;;;;;8.93;5.35;;;12.40;99.90;;;;;;5019651;28;20743;-79
2022/10/09 02:30:30;;;;;;;8.02;5.63;;;12.60;99.90;;;;;;5008580;28;20222;-79
2022/10/09 02:33:18;;;;;;;8.68;5.60;;;12.70;99.90;;;;;;5013937;28;20729;-80
2022/10/09 02:36:09;;;;;;;11.13;5.78;;;12.60;99.90;;;;;;5016779;28;20284;-80
2022/10/09 02:38:58;;;;;;;12.75;6.00;;;12.50;99.90;;;;;;5015232;28;20734;-81
2022/10/09 02:41:47;;;;;;;8.77;5.28;;;12.40;99.90;;;;;;5017050;28;20217;-81
2022/10/09 02:44:35;;;;;;;12.45;6.70;;;12.40;99.90;;;;;;5003894;28;20225;-81
2022/10/09 02:47:24;;;;;;;11.50;6.25;;;12.50;99.90;;;;;;5018248;28;20225;-80
2022/10/09 02:50:13;;;;;;;8.20;6.45;;;12.50;99.90;;;;;;5010383;28;20218;-80
2022/10/09 02:53:03;;;;;;;8.43;5.72;;;12.20;99.90;;;;;;5017180;28;20689;-81
2022/10/09 02:55:51;;;;;;;11.23;6.22;;;12.30;99.90;;;;;;5012190;28;20217;-81
2022/10/09 02:58:40;;;;;;;11.55;7.07;;;12.20;99.90;;;;;;5011809;28;20222;-80
2022/10/09 03:01:29;;;;;;;11.73;6.75;;;12.30;99.90;;;;;;5010704;28;20210;-80
2022/10/09 03:04:18;;;;;;;9.80;7.18;;;12.30;99.90;;;;;;5014833;28;20728;-80
2022/10/09 03:07:06;;;;;;;10.75;7.40;;;12.10;99.90;;;;;;5022054;28;20217;-80
2022/10/09 03:09:57;;;;;;;14.05;7.40;;;12.00;99.90;;;;;;5023958;28;20218;-80
2022/10/09 03:12:46;;;;;;;15.38;6.80;;;12.10;99.90;;;;;;5019967;28;20226;-80
2022/10/09 03:15:36;;;;;;;10.15;7.13;;;12.10;99.90;;;;;;5022693;28;20240;-80
2022/10/09 03:18:24;;;;;;;14.73;7.75;;;12.20;99.90;;;;;;5015688;28;20221;-80
2022/10/09 03:21:14;;;;;;;14.63;7.35;;;12.20;99.90;;;;;;5006221;28;20300;-81
2022/10/09 03:24:03;;;;;;;18.00;8.10;;;12.00;99.90;;;;;;5023153;28;20225;-80
2022/10/09 03:26:53;;;;;;;10.80;8.20;;;12.40;99.90;;;;;;5021800;28;20225;-80
2022/10/09 03:29:42;;;;;;;12.68;7.68;;;12.30;99.90;;;;;;5019715;28;20218;-80
2022/10/09 03:32:31;;;;;;;14.43;8.02;;;12.10;99.90;;;;;;5017321;28;20230;-77
2022/10/09 03:35:19;;;;;;;11.80;8.25;;;11.90;99.90;;;;;;5007500;28;20862;-79
2022/10/09 03:38:08;;;;;;;13.40;7.65;;;12.00;99.90;;;;;;5000345;28;20719;-77
2022/10/09 03:40:59;;;;;;;13.77;8.23;;;11.90;99.90;;;;;;5021960;28;20229;-77
2022/10/09 03:43:49;;;;;;;13.98;8.00;;;11.90;99.90;;;;;;5017758;28;20731;-79
2022/10/09 03:46:37;;;;;;;14.43;7.88;;;11.80;99.90;;;;;;5019913;28;20250;-78
2022/10/09 03:49:26;;;;;;;12.77;6.90;;;12.00;99.90;;;;;;5014787;28;20221;-77
2022/10/09 03:52:15;;;;;;;9.68;6.90;;;12.00;99.90;;;;;;5008679;28;20254;-78
2022/10/09 03:55:04;;;;;;;12.20;7.32;;;11.90;99.90;;;;;;5017221;28;20719;-78
2022/10/09 03:57:53;;;;;;;8.88;6.85;;;11.80;99.90;;;;;;5016677;28;20221;-79
2022/10/09 04:00:44;;;;;;;11.98;7.22;;;11.90;99.90;;;;;;5007314;28;20245;-79
2022/10/09 04:03:32;;;;;;;11.18;7.50;;;12.00;99.90;;;;;;5014522;28;20232;-79
2022/10/09 04:06:21;;;;;;;14.85;7.53;;;11.90;99.90;;;;;;5013616;28;20219;-80
2022/10/09 04:09:10;;;;;;;11.93;6.80;;;12.00;99.90;;;;;;5012001;28;20225;-79
2022/10/09 04:11:58;;;;;;;12.93;7.05;;;12.00;99.90;;;;;;5018603;28;20225;-79
2022/10/09 04:14:47;;;;;;;10.73;6.95;;;12.00;99.90;;;;;;5016315;28;20232;-80
2022/10/09 04:17:37;;;;;;;13.38;7.00;;;12.10;99.90;;;;;;5013534;28;20221;-80
2022/10/09 04:20:26;;;;;;;11.02;6.90;;;12.00;99.90;;;;;;5020968;28;20344;-80
2022/10/09 04:23:14;;;;;;;12.65;7.20;;;12.00;99.90;;;;;;5018692;28;20232;-80
2022/10/09 04:26:03;;;;;;;14.20;7.38;;;12.00;99.90;;;;;;5020086;28;20218;-79
2022/10/09 04:28:52;;;;;;;12.57;7.47;;;11.80;99.90;;;;;;5020147;28;20218;-79
2022/10/09 04:31:40;;;;;;;12.43;7.40;;;11.90;99.90;;;;;;5002905;28;20535;-79
2022/10/09 04:34:31;;;;;;;12.60;8.10;;;11.80;99.90;;;;;;5022237;28;20225;-80
2022/10/09 04:37:20;;;;;;;12.20;8.23;;;11.90;99.90;;;;;;5017594;28;20720;-80
2022/10/09 04:40:09;;;;;;;14.60;9.05;;;11.90;99.90;;;;;;5016691;28;20588;-80
2022/10/09 04:42:58;;;;;;;11.77;8.38;;;12.00;99.90;;;;;;5015202;28;20253;-78
2022/10/09 04:45:46;;;;;;;9.65;8.45;;;12.00;99.90;;;;;;5026139;28;20226;-79
2022/10/09 04:48:38;;;;;;;15.52;9.90;;;11.90;99.90;;;;;;5015499;28;20233;-80
2022/10/09 04:51:28;;;;;;;11.65;8.27;;;11.90;99.90;;;;;;5021874;28;20229;-79
2022/10/09 04:54:17;;;;;;;14.63;8.20;;;11.90;99.90;;;;;;5019127;28;20257;-79
2022/10/09 04:57:05;;;;;;;10.57;8.25;;;11.90;99.90;;;;;;5015032;28;20253;-80
2022/10/09 04:59:54;;;;;;;12.20;8.70;;;11.90;99.90;;;;;;5006989;28;20224;-80
2022/10/09 05:02:42;;;;;;;12.18;9.05;;;12.00;99.90;;;;;;5024677;28;20225;-78
2022/10/09 05:05:32;;;;;;;14.95;9.23;;;11.90;99.90;;;;;;5015759;28;20223;-80
2022/10/09 05:08:22;;;;;;;13.25;9.63;;;12.30;99.90;;;;;;5017960;28;20222;-80
2022/10/09 05:11:12;;;;;;;12.18;9.88;;;11.90;99.90;;;;;;5016386;28;20692;-79
2022/10/09 05:14:01;;;;;;;17.55;10.10;;;11.80;99.90;;;;;;5011000;28;20229;-79
2022/10/09 05:16:51;;;;;;;15.05;10.20;;;11.90;99.90;;;;;;5010765;28;20237;-80
2022/10/09 05:20:00;;;;;;;14.70;10.32;;;11.90;99.90;;;;;;5017475;28;20241;-80
2022/10/09 05:22:48;;;;;;;14.73;10.57;;;11.90;99.90;;;;;;5016721;28;20218;-79
2022/10/09 05:25:39;;;;;;;16.85;10.13;;;11.90;99.90;;;;;;5014029;28;20644;-78
2022/10/09 05:28:28;;;;;;;15.05;10.32;;;11.90;99.90;;;;;;5008821;28;20308;-79
2022/10/09 05:31:19;;;;;;;17.05;10.70;;;12.10;99.90;;;;;;5019760;28;20221;-80
2022/10/09 05:34:08;;;;;;;12.43;10.30;;;11.90;99.90;;;;;;5014066;28;20281;-79
2022/10/09 05:36:56;;;;;;;14.75;10.15;;;11.80;99.90;;;;;;5013879;28;20228;-79
2022/10/09 05:39:45;;;;;;;15.02;10.73;;;11.90;99.90;;;;;;5014804;28;20232;-79
2022/10/09 05:42:35;;;;;;;19.75;11.40;;;12.00;99.90;;;;;;5017232;28;20218;-78
2022/10/09 05:45:24;;;;;;;15.27;10.45;;;12.20;99.90;;;;;;5013212;28;20230;-78
2022/10/09 05:48:12;;;;;;;16.13;10.70;;;12.00;99.90;;;;;;5011411;28;20269;-78
2022/10/09 05:51:09;;;;;;;15.95;10.10;;;11.90;99.90;;;;;;5011636;28;20226;-80
2022/10/09 05:54:00;;;;;;;17.58;11.13;;;11.90;99.90;;;;;;5013143;28;20229;-79
2022/10/09 05:56:49;;;;;;;16.10;10.40;;;12.00;99.90;;;;;;5013836;28;20222;-79
2022/10/09 05:59:39;;;;;;;13.40;10.32;;;12.00;99.90;;;;;;5016818;28;20776;-80
2022/10/09 06:02:28;;;;;;;17.13;10.35;;;12.10;99.90;;;;;;4998668;28;20584;-79
2022/10/09 06:05:17;;;;;;;13.50;10.18;;;12.10;99.90;;;;;;5012129;28;20344;-78
2022/10/09 06:08:05;;;;;;;11.35;9.73;;;11.90;99.90;;;;;;5014161;28;20233;-79
2022/10/09 06:10:54;;;;;;;14.18;10.75;;;12.20;99.90;;;;;;5014425;28;20209;-78
2022/10/09 06:13:43;;;;;;;15.43;11.30;;;12.20;99.90;;;;;;5008658;28;20625;-79
2022/10/09 06:16:35;;;;;;;15.90;9.82;;;12.30;99.90;;;;;;5014869;28;20229;-79
2022/10/09 06:19:24;;;;;;;13.90;11.40;;;12.10;99.90;;;;;;5009579;28;20215;-78
2022/10/09 06:22:12;;;;;;;12.85;10.88;;;12.20;99.90;;;;;;5015050;28;20587;-78
2022/10/09 06:25:01;;;;;;;13.55;10.32;;;12.30;99.90;;;;;;5010654;28;20816;-79
2022/10/09 06:27:50;;;;;;;18.67;11.65;;;12.40;99.90;;;;;;5014358;28;20218;-78
2022/10/09 06:30:38;;;;;;;14.70;11.20;;;12.40;99.90;;;;;;5019519;28;20220;-78
2022/10/09 06:33:31;;;;;;;14.10;11.38;;;12.30;99.90;;;;;;5016703;28;20589;-79
2022/10/09 06:36:22;;;;;;;13.98;10.38;;;12.30;99.90;;;;;;5013528;28;20225;-78
2022/10/09 06:39:11;;;;;;;14.05;11.57;;;12.30;99.90;;;;;;5013651;28;20881;-78
2022/10/09 06:41:59;;;;;;;16.02;11.73;;;12.30;99.90;;;;;;5012909;28;20275;-79
2022/10/09 06:44:59;;;;;;;12.60;10.88;;;12.30;99.90;;;;;;5002040;28;20364;-79
2022/10/09 06:47:48;;;;;;;13.13;11.25;;;12.40;99.90;;;;;;5013769;28;20221;-78
2022/10/09 06:50:38;;;;;;;14.55;11.30;;;12.50;99.90;;;;;;5011855;28;20226;-79
2022/10/09 06:53:27;;;;;;;11.55;10.00;;;12.60;99.90;;;;;;5011276;28;20222;-78
2022/10/09 06:56:16;;;;;;;13.02;11.02;;;12.50;99.90;;;;;;5013288;28;20309;-78
2022/10/09 06:59:07;;;;;;;11.73;9.90;;;12.60;99.90;;;;;;5012919;28;20240;-84
2022/10/09 07:01:56;;;;;;;12.50;10.05;;;12.50;99.90;;;;;;5001572;28;20202;-82
2022/10/09 07:04:47;;;;;;;16.33;9.57;;;12.50;99.90;;;;;;5011300;28;20220;-82
2022/10/09 07:07:41;;;;;;;9.63;8.65;;;12.50;99.90;;;;;;5007131;28;20226;-82
2022/10/09 07:10:29;;;;;;;11.73;8.50;;;12.50;99.90;;;;;;5009264;28;20201;-81
2022/10/09 07:13:18;;;;;;;10.02;8.25;;;12.60;99.90;;;;;;5012385;28;20209;-81
2022/10/09 07:16:07;;;;;;;10.52;8.93;;;12.70;99.90;;;;;;5011599;28;20186;-81
2022/10/09 07:18:56;;;;;;;13.98;8.20;;;12.70;99.90;;;;;;4994400;28;20195;-80
2022/10/09 07:21:47;;;;;;;12.25;7.72;;;12.60;99.90;;;;;;5027287;28;20209;-90
2022/10/09 07:24:37;;;;;;;9.05;7.50;;;12.70;99.90;;;;;;5041978;28;20475;-95
2022/10/09 07:27:26;;;;;;;9.07;7.32;;;12.70;99.90;;;;;;5011085;28;20446;-92
2022/10/09 07:30:15;;;;;;;10.13;7.35;;;12.80;99.90;;;;;;5048946;28;20209;-88
2022/10/09 07:33:03;;;;;;;9.85;6.97;;;12.80;99.90;;;;;;5025476;28;20233;-80
2022/10/09 07:35:56;;;;;;;8.32;6.68;;;12.80;99.90;;;;;;5013583;28;20207;-79
2022/10/09 07:38:45;;;;;;;8.80;6.78;;;12.90;99.90;;;;;;5015056;28;20206;-80
2022/10/09 07:41:35;;;;;;;7.85;7.00;;;13.00;99.90;;;;;;5019514;28;20205;-88
2022/10/09 07:44:24;;;;;;;9.13;6.80;;;13.00;99.90;;;;;;5018456;28;20206;-87
2022/10/09 07:47:12;;;;;;;8.38;7.18;;;13.00;99.90;;;;;;5015476;28;20203;-87
2022/10/09 07:50:01;;;;;;;8.80;7.03;;;13.10;99.90;;;;;;5026388;28;20201;-90
2022/10/09 07:52:50;;;;;;;11.18;7.45;;;13.30;99.90;;;;;;5019440;28;20190;-90
2022/10/09 07:55:45;;;;;;;11.57;7.60;;;13.30;99.90;;;;;;5023976;28;20202;-89
2022/10/09 07:58:35;;;;;;;13.15;8.57;;;13.30;99.90;;;;;;5022233;28;20293;-81
2022/10/09 08:01:26;;;;;;;14.02;8.98;;;13.40;99.90;;;;;;5019910;28;20598;-79
2022/10/09 08:04:15;;;;;;;9.88;8.77;;;13.30;99.90;;;;;;5017747;28;20316;-79
2022/10/09 08:07:04;;;;;;;12.57;9.65;;;13.30;99.90;;;;;;5032266;28;20190;-81
2022/10/09 08:09:52;;;;;;;15.25;10.32;;;13.30;99.90;;;;;;5017067;28;20197;-83
2022/10/09 08:12:41;;;;;;;13.48;10.70;;;13.10;99.90;;;;;;5019800;28;20710;-82
2022/10/09 08:15:32;;;;;;;14.40;9.85;;;13.20;99.90;;;;;;5017124;28;20209;-83
2022/10/09 08:18:21;;;;;;;15.43;10.32;;;13.10;99.90;;;;;;5014725;28;20225;-81
2022/10/09 08:21:13;;;;;;;12.73;10.70;;;13.10;99.90;;;;;;5009650;28;20205;-79
2022/10/09 08:24:02;;;;;;;12.60;10.25;;;13.00;99.90;;;;;;5005238;28;20214;-80
2022/10/09 08:26:50;;;;;;;11.57;10.32;;;13.00;99.90;;;;;;5000499;28;20245;-79
2022/10/09 08:29:39;;;;;;;12.45;9.75;;;12.90;99.90;;;;;;5018174;28;20197;-76
2022/10/09 08:32:29;;;;;;;13.90;10.30;;;12.90;99.90;;;;;;5024508;28;20213;-76
2022/10/09 08:35:18;;;;;;;21.17;10.77;;;12.90;99.90;;;;;;5012049;28;20198;-76
2022/10/09 08:38:06;;;;;;;18.90;10.00;;;12.90;99.90;;;;;;4996220;28;20203;-75
2022/10/09 08:41:02;;;;;;;12.15;10.90;;;12.80;99.90;;;;;;5013891;28;20696;-75
2022/10/09 08:43:57;;;;;;;16.33;11.68;;;12.90;99.90;;;;;;5013925;28;20202;-75
2022/10/09 08:46:59;;;;;;;13.50;10.70;;;12.80;99.90;;;;;;5011704;28;20186;-76
2022/10/09 08:49:54;;;;;;;14.82;11.60;;;12.90;99.90;;;;;;5007910;28;20209;-74
2022/10/09 08:52:49;;;;;;;15.45;11.27;;;12.90;99.90;;;;;;5015043;28;20201;-74
2022/10/09 08:55:45;;;;;;;12.80;11.05;;;12.90;99.90;;;;;;5012343;28;20290;-76
2022/10/09 08:58:38;;;;;;;14.10;11.23;;;12.90;99.90;;;;;;5012687;28;20198;-74
2022/10/09 09:01:35;;;;;;;12.57;10.73;;;12.90;99.90;;;;;;5012520;28;20209;-74
2022/10/09 09:04:43;;;;;;;12.52;10.13;;;13.00;99.90;;;;;;5012813;28;20222;-74
2022/10/09 09:07:41;;;;;;;11.63;9.85;;;13.00;99.90;;;;;;5015166;28;20217;-74
2022/10/09 09:10:38;;;;;;;12.93;9.55;;;13.10;99.90;;;;;;5013194;28;20212;-76
2022/10/09 09:13:45;;;;;;;13.20;9.13;;;13.20;99.90;;;;;;5015822;28;20213;-75
2022/10/09 09:16:43;;;;;;;13.85;9.07;;;13.50;99.90;;;;;;5015323;28;20296;-74
2022/10/09 09:19:43;;;;;;;12.38;10.02;;;13.50;99.90;;;;;;5013844;28;20208;-74
2022/10/09 09:22:34;;;;;;;9.85;8.88;;;13.50;99.90;;;;;;5015794;28;20203;-75
2022/10/09 09:25:24;;;;;;;9.73;8.68;;;13.50;99.90;;;;;;5017211;28;20217;-76
2022/10/09 09:28:19;;;;;;;10.85;8.25;;;13.60;99.90;;;;;;5014795;28;20194;-75
2022/10/09 09:31:16;;;;;;;8.75;7.85;;;13.70;99.90;;;;;;5001622;28;20206;-75
2022/10/09 09:34:10;;;;;;;9.88;7.90;;;13.80;99.90;;;;;;5015201;28;20199;-75
2022/10/09 09:36:59;;;;;;;11.13;7.63;;;13.60;99.90;;;;;;5015227;28;20202;-75
2022/10/09 09:39:48;;;;;;;9.27;7.88;;;13.60;99.90;;;;;;5018438;28;20230;-75
2022/10/09 09:42:59;;;;;;;13.48;9.38;;;13.60;99.90;;;;;;5028735;28;20190;-76
2022/10/09 09:45:53;;;;;;;9.27;7.43;;;13.50;99.90;;;;;;5021213;28;20811;-75
2022/10/09 09:48:46;;;;;;;8.70;7.20;;;13.60;99.90;;;;;;5019227;28;20208;-75
2022/10/09 09:51:36;;;;;;;10.43;6.82;;;13.60;99.90;;;;;;5013663;28;20233;-75
2022/10/09 09:54:27;;;;;;;8.95;6.50;;;13.70;99.90;;;;;;5016691;28;20256;-74
2022/10/09 09:57:30;;;;;;;4.95;4.32;;;13.90;99.90;;;;;;5014231;28;20241;-75
2022/10/09 10:00:21;;;;;;;6.70;4.40;;;14.10;99.90;;;;;;5017100;28;20221;-74
2022/10/09 10:03:13;;;;;;;8.15;5.10;;;14.20;99.90;;;;;;5016963;28;20201;-74
2022/10/09 10:06:02;;;;;;;6.18;5.50;;;14.30;99.90;;;;;;5017496;28;20221;-75
2022/10/09 10:09:05;;;;;;;6.80;5.50;;;14.30;99.90;;;;;;5017232;28;20215;-74
2022/10/09 10:11:57;;;;;;;8.05;5.68;;;14.30;99.90;;;;;;5022435;28;20268;-75
2022/10/09 10:14:51;;;;;;;12.65;6.60;;;14.40;99.90;;;;;;5025780;28;20206;-75
2022/10/09 10:17:39;;;;;;;7.82;6.32;;;14.30;99.90;;;;;;5023716;28;20279;-75
2022/10/09 10:20:30;;;;;;;8.32;6.53;;;14.40;99.90;;;;;;5018718;28;20671;-75
2022/10/09 10:23:30;;;;;;;10.35;6.28;;;14.40;99.90;;;;;;5019418;28;20201;-75
2022/10/09 10:26:33;;;;;;;11.57;7.22;;;14.40;99.90;;;;;;5018642;28;20220;-77
2022/10/09 10:29:27;;;;;;;9.77;7.25;;;14.20;99.90;;;;;;5023616;28;20205;-75
2022/10/09 10:32:21;;;;;;;11.40;7.63;;;14.10;99.90;;;;;;5005602;28;20198;-74
2022/10/09 10:35:13;;;;;;;11.60;7.78;;;14.00;99.90;;;;;;5011853;28;20189;-73
2022/10/09 10:38:05;;;;;;;13.52;8.13;;;13.90;99.90;;;;;;5010703;28;20195;-75
2022/10/09 10:41:03;;;;;;;9.68;8.68;;;13.90;99.90;;;;;;5016078;28;20526;-75
2022/10/09 10:43:57;;;;;;;11.95;9.02;;;13.80;99.90;;;;;;5015899;28;20263;-77
2022/10/09 10:46:52;;;;;;;10.25;8.50;;;13.80;99.90;;;;;;5005095;28;20359;-77
2022/10/09 10:49:42;;;;;;;10.70;7.78;;;13.70;99.90;;;;;;5032746;28;20213;-77
2022/10/09 10:52:44;;;;;;;9.93;8.00;;;13.60;99.90;;;;;;5012128;28;20277;-77
2022/10/09 10:55:44;;;;;;;11.50;8.80;;;13.60;99.90;;;;;;5021548;28;20205;-76
2022/10/09 10:58:46;;;;;;;11.00;7.95;;;13.60;99.90;;;;;;5014954;28;20272;-77
2022/10/09 11:01:41;;;;;;;11.93;8.57;;;13.80;99.90;;;;;;5012686;28;21002;-77
2022/10/09 11:04:41;;;;;;;10.57;7.32;;;14.00;99.90;;;;;;5003000;28;20235;-78
2022/10/09 11:07:42;;;;;;;9.38;7.22;;;14.20;99.90;;;;;;5008316;28;20308;-78
2022/10/09 11:10:38;;;;;;;7.50;6.45;;;14.30;99.90;;;;;;5012503;28;20210;-79
2022/10/09 11:13:32;;;;;;;11.10;6.85;;;14.30;99.90;;;;;;4999445;28;20203;-79
2022/10/09 11:16:33;;;;;;;7.53;5.68;;;14.20;99.90;;;;;;5015929;28;20221;-79
2022/10/09 11:19:45;;;;;;;6.18;5.25;;;14.10;99.90;;;;;;5019546;28;20193;-77
2022/10/09 11:22:51;;;;;;;9.93;6.53;;;14.10;99.90;;;;;;5020317;28;20319;-78
2022/10/09 11:25:45;;;;;;;9.75;7.00;;;14.00;99.90;;;;;;5021010;28;20198;-78
2022/10/09 11:28:42;;;;;;;11.48;7.82;;;13.90;99.90;;;;;;5022827;28;20673;-77
2022/10/09 11:31:37;;;;;;;15.55;8.30;;;14.10;99.90;;;;;;5008983;28;20195;-77
2022/10/09 11:34:30;;;;;;;11.15;8.20;;;14.00;99.90;;;;;;5021406;28;20198;-75
2022/10/09 11:37:23;;;;;;;9.55;7.78;;;14.00;99.90;;;;;;5021374;28;20435;-75
2022/10/09 11:40:18;;;;;;;10.75;8.27;;;14.10;99.90;;;;;;5023468;28;20194;-75
2022/10/09 11:43:15;;;;;;;9.63;7.35;;;14.10;99.90;;;;;;5015323;28;20569;-74
2022/10/09 11:46:10;;;;;;;9.90;7.00;;;14.00;99.90;;;;;;5015197;28;20884;-74
2022/10/09 11:49:09;;;;;;;10.82;7.05;;;14.10;99.90;;;;;;5027629;28;20227;-75
2022/10/09 11:52:03;;;;;;;10.32;6.72;;;14.20;99.90;;;;;;5020212;28;20233;-75
2022/10/09 11:54:52;;;;;;;9.05;6.93;;;14.10;99.90;;;;;;5006073;28;20202;-75
2022/10/09 11:57:42;;;;;;;9.13;6.13;;;14.10;99.90;;;;;;5014454;28;20555;-76
2022/10/09 12:00:32;;;;;;;8.63;5.38;;;14.10;99.90;;;;;;5024195;28;20209;-75
2022/10/09 12:03:32;;;;;;;7.68;5.65;;;14.20;99.90;;;;;;5012596;28;20244;-76
2022/10/09 12:06:21;;;;;;;8.18;5.50;;;14.20;99.90;;;;;;5029708;28;20578;-75
2022/10/09 12:09:10;;;;;;;6.82;4.97;;;14.30;99.90;;;;;;5006325;28;20308;-75
2022/10/09 12:12:06;;;;;;;7.32;5.22;;;14.50;99.90;;;;;;4995654;28;20209;-75
2022/10/09 12:14:56;;;;;;;8.82;5.53;;;14.60;99.90;;;;;;5021583;28;20201;-76
2022/10/09 12:17:48;;;;;;;9.52;5.20;;;14.80;99.90;;;;;;5014367;28;20277;-76
2022/10/09 12:20:38;;;;;;;6.28;4.60;;;14.80;99.90;;;;;;5019929;28;20236;-74
2022/10/09 12:23:31;;;;;;;10.82;4.20;;;14.80;99.90;;;;;;5018269;28;20205;-75
2022/10/09 12:26:24;;;;;;;5.55;4.15;;;14.80;99.90;;;;;;4993175;28;20814;-75
2022/10/09 12:29:21;;;;;;;7.28;4.32;;;14.70;99.90;;;;;;5022686;28;20214;-75
2022/10/09 12:32:17;;;;;;;7.35;4.53;;;14.70;99.90;;;;;;5012578;28;20197;-77
2022/10/09 12:35:19;;;;;;;5.97;3.42;;;14.60;99.90;;;;;;5019471;28;20268;-78
2022/10/09 12:38:16;;;;;;;9.55;3.97;;;14.60;99.90;;;;;;5015746;28;20269;-79
2022/10/09 12:41:08;;;;;;;10.15;4.00;;;14.70;99.90;;;;;;5018419;28;20193;-78
2022/10/09 12:43:58;;;;;;;8.82;3.80;;;14.70;99.90;;;;;;5021045;28;20206;-76
2022/10/09 12:46:47;;;;;;;4.13;3.60;;;14.70;99.90;;;;;;5031735;28;20562;-75
2022/10/09 12:49:37;;;;;;;5.72;3.85;;;14.70;99.90;;;;;;5012479;28;20229;-77
2022/10/09 12:52:26;;;;;;;10.27;4.10;;;14.70;99.90;;;;;;5010899;28;20213;-75
2022/10/09 12:55:22;;;;;;;8.75;3.90;;;14.70;99.90;;;;;;5015221;28;20206;-77
2022/10/09 12:58:18;;;;;;;7.00;3.60;;;14.70;99.90;;;;;;5015560;28;20398;-74
2022/10/09 13:01:12;;;;;;;5.72;3.60;;;14.60;99.90;;;;;;5016212;28;20198;-77
2022/10/09 13:04:03;;;;;;;9.10;4.10;;;14.50;99.90;;;;;;5021014;28;20237;-75
2022/10/09 13:06:55;;;;;;;7.72;4.22;;;14.50;99.90;;;;;;5020235;28;20214;-76
2022/10/09 13:09:44;;;;;;;7.50;4.22;;;14.40;99.90;;;;;;5019424;28;20206;-76
2022/10/09 13:12:33;;;;;;;7.40;4.55;;;14.30;99.90;;;;;;5005923;28;20202;-76
2022/10/09 13:15:32;;;;;;;7.35;4.13;;;14.40;99.90;;;;;;5016362;28;20620;-76
2022/10/09 13:18:22;;;;;;;6.82;4.18;;;14.20;99.90;;;;;;5037259;28;20198;-75
2022/10/09 13:21:23;;;;;;;6.13;4.60;;;14.30;99.90;;;;;;5016579;28;20317;-76
2022/10/09 13:24:13;;;;;;;7.35;4.30;;;14.30;99.90;;;;;;5015406;28;20200;-76
2022/10/09 13:27:04;;;;;;;11.30;4.28;;;14.50;99.90;;;;;;5001108;28;20349;-75
2022/10/09 13:29:52;;;;;;;7.35;4.07;;;14.60;99.90;;;;;;5018565;28;20233;-75
2022/10/09 13:32:41;;;;;;;5.63;3.95;;;14.50;99.90;;;;;;5024412;28;20202;-75
2022/10/09 13:35:29;;;;;;;6.93;4.30;;;14.50;99.90;;;;;;5016305;28;20205;-76
2022/10/09 13:38:19;;;;;;;7.35;4.38;;;14.50;99.90;;;;;;4995450;28;20202;-75
2022/10/09 13:41:13;;;;;;;8.45;3.85;;;14.60;99.90;;;;;;5014695;28;20199;-75
2022/10/09 13:44:01;;;;;;;6.80;4.47;;;14.50;99.90;;;;;;5005369;28;20194;-75
2022/10/09 13:46:50;;;;;;;6.18;4.57;;;14.60;99.90;;;;;;5015815;28;20209;-75
2022/10/09 13:49:39;;;;;;;5.60;4.60;;;14.60;99.90;;;;;;5027643;28;20194;-75
2022/10/09 13:52:27;;;;;;;7.20;4.47;;;14.70;99.90;;;;;;5010732;28;20335;-80
2022/10/09 13:55:16;;;;;;;8.60;5.20;;;14.60;99.90;;;;;;5016864;28;20194;-75
2022/10/09 13:58:06;;;;;;;8.02;4.47;;;14.50;99.90;;;;;;5015504;28;20268;-75
2022/10/09 14:00:56;;;;;;;8.77;5.25;;;14.30;99.90;;;;;;5014340;28;20205;-75
2022/10/09 14:03:45;;;;;;;10.23;5.20;;;14.10;99.90;;;;;;5010383;28;20277;-75
2022/10/09 14:06:35;;;;;;;7.22;5.07;;;14.00;99.90;;;;;;5013266;28;20506;-76
2022/10/09 14:09:24;;;;;;;6.90;5.28;;;14.10;99.90;;;;;;5003045;28;20198;-76
2022/10/09 14:12:13;;;;;;;8.82;5.35;;;14.10;99.90;;;;;;5026715;28;20207;-75
2022/10/09 14:15:03;;;;;;;10.38;5.22;;;14.00;99.90;;;;;;5018351;28;20664;-75
2022/10/09 14:17:52;;;;;;;9.48;5.40;;;14.10;99.90;;;;;;4996605;28;20203;-75
2022/10/09 14:20:41;;;;;;;8.88;4.97;;;14.00;99.90;;;;;;5006494;28;20526;-81
2022/10/09 14:23:29;;;;;;;7.38;4.45;;;13.90;99.90;;;;;;5018284;28;20202;-81
2022/10/09 14:26:18;;;;;;;8.82;5.00;;;13.70;99.90;;;;;;5016402;28;20542;-76
2022/10/09 14:29:07;;;;;;;8.48;5.30;;;13.70;99.90;;;;;;5004871;28;20220;-77
2022/10/09 14:31:57;;;;;;;9.05;5.03;;;13.70;99.90;;;;;;5008120;28;20584;-77
2022/10/09 14:34:45;;;;;;;11.02;5.30;;;13.80;99.90;;;;;;4998001;28;20312;-77
2022/10/09 14:37:34;;;;;;;8.27;5.00;;;13.90;99.90;;;;;;5007089;28;20214;-74
2022/10/09 14:40:29;;;;;;;7.25;4.82;;;13.90;99.90;;;;;;5009141;28;20335;-73
2022/10/09 14:43:18;;;;;;;6.88;5.22;;;13.80;99.90;;;;;;5010663;28;20232;-73
2022/10/09 14:46:11;;;;;;;9.95;4.85;;;13.80;99.90;;;;;;5005422;28;20214;-75